sensor_id;sensor_type;location;lat;lon;timestamp;pressure;altitude;pressure_sealevel;temperature;humidity
64835;BME280;51293;59.296;18.006;2022-10-17T00:02:13;100474.84;;;8.18;84.39
64835;BME280;51293;59.296;18.006;2022-10-17T00:04:38;100482.59;;;8.08;85.09
64835;BME280;51293;59.296;18.006;2022-10-17T00:07:04;100489.06;;;8.07;85.08
64835;BME280;51293;59.296;18.006;2022-10-17T00:09:29;100482.34;;;8.16;84.29
64835;BME280;51293;59.296;18.006;2022-10-17T00:11:54;100489.22;;;8.12;84.69
64835;BME280;51293;59.296;18.006;2022-10-17T00:14:20;100490.84;;;8.20;84.37
64835;BME280;51293;59.296;18.006;2022-10-17T00:16:45;100496.66;;;8.17;84.84
64835;BME280;51293;59.296;18.006;2022-10-17T00:19:11;100493.06;;;8.23;84.42
64835;BME280;51293;59.296;18.006;2022-10-17T00:21:36;100488.22;;;8.32;84.44
64835;BME280;51293;59.296;18.006;2022-10-17T00:24:01;100503.00;;;8.29;84.48
64835;BME280;51293;59.296;18.006;2022-10-17T00:26:27;100511.22;;;8.34;84.68
64835;BME280;51293;59.296;18.006;2022-10-17T00:28:54;100512.50;;;8.38;84.45
64835;BME280;51293;59.296;18.006;2022-10-17T00:31:21;100518.25;;;8.42;84.24
64835;BME280;51293;59.296;18.006;2022-10-17T00:33:46;100521.34;;;8.46;84.04
64835;BME280;51293;59.296;18.006;2022-10-17T00:36:21;100523.22;;;8.45;84.79
64835;BME280;51293;59.296;18.006;2022-10-17T00:38:51;100523.38;;;8.50;84.25
64835;BME280;51293;59.296;18.006;2022-10-17T00:41:19;100527.28;;;8.54;84.48
64835;BME280;51293;59.296;18.006;2022-10-17T00:46:17;100537.63;;;8.57;83.95
64835;BME280;51293;59.296;18.006;2022-10-17T00:48:43;100535.47;;;8.66;83.13
64835;BME280;51293;59.296;18.006;2022-10-17T00:51:09;100547.94;;;8.67;83.29
64835;BME280;51293;59.296;18.006;2022-10-17T00:53:35;100532.13;;;8.70;83.27
64835;BME280;51293;59.296;18.006;2022-10-17T00:56:01;100542.91;;;8.70;83.58
64835;BME280;51293;59.296;18.006;2022-10-17T00:58:27;100541.41;;;8.75;83.51
64835;BME280;51293;59.296;18.006;2022-10-17T01:00:52;100528.31;;;8.78;83.29
64835;BME280;51293;59.296;18.006;2022-10-17T01:03:18;100541.13;;;8.83;82.51
64835;BME280;51293;59.296;18.006;2022-10-17T01:05:43;100542.41;;;8.80;82.57
64835;BME280;51293;59.296;18.006;2022-10-17T01:08:11;100546.16;;;8.79;83.05
64835;BME280;51293;59.296;18.006;2022-10-17T01:10:48;100552.00;;;8.76;82.86
64835;BME280;51293;59.296;18.006;2022-10-17T01:14:08;100548.63;;;8.81;82.90
64835;BME280;51293;59.296;18.006;2022-10-17T01:16:23;100564.16;;;8.85;82.45
64835;BME280;51293;59.296;18.006;2022-10-17T01:24:32;100590.50;;;8.90;82.36
64835;BME280;51293;59.296;18.006;2022-10-17T01:27:25;100579.47;;;8.91;82.05
64835;BME280;51293;59.296;18.006;2022-10-17T01:30:40;100583.75;;;8.99;81.94
64835;BME280;51293;59.296;18.006;2022-10-17T01:33:12;100582.09;;;8.98;81.69
64835;BME280;51293;59.296;18.006;2022-10-17T01:35:47;100606.78;;;9.01;81.21
64835;BME280;51293;59.296;18.006;2022-10-17T01:38:47;100605.03;;;9.14;80.58
64835;BME280;51293;59.296;18.006;2022-10-17T01:41:36;100604.44;;;9.12;80.62
64835;BME280;51293;59.296;18.006;2022-10-17T01:46:36;100610.25;;;9.09;80.68
64835;BME280;51293;59.296;18.006;2022-10-17T01:49:05;100617.13;;;9.11;80.71
64835;BME280;51293;59.296;18.006;2022-10-17T01:51:55;100623.47;;;9.17;79.86
64835;BME280;51293;59.296;18.006;2022-10-17T01:54:39;100643.91;;;9.13;80.02
64835;BME280;51293;59.296;18.006;2022-10-17T01:57:10;100630.22;;;9.08;80.35
64835;BME280;51293;59.296;18.006;2022-10-17T01:59:43;100625.41;;;9.10;80.20
64835;BME280;51293;59.296;18.006;2022-10-17T02:02:12;100642.84;;;9.14;80.12
64835;BME280;51293;59.296;18.006;2022-10-17T02:04:39;100644.31;;;9.10;80.39
64835;BME280;51293;59.296;18.006;2022-10-17T02:07:10;100653.19;;;9.17;79.71
64835;BME280;51293;59.296;18.006;2022-10-17T02:09:36;100655.00;;;9.23;79.00
64835;BME280;51293;59.296;18.006;2022-10-17T02:12:15;100658.31;;;9.25;79.04
64835;BME280;51293;59.296;18.006;2022-10-17T02:15:02;100655.84;;;9.23;79.04
64835;BME280;51293;59.296;18.006;2022-10-17T02:18:01;100677.91;;;9.20;78.85
64835;BME280;51293;59.296;18.006;2022-10-17T02:20:37;100676.88;;;9.21;78.66
64835;BME280;51293;59.296;18.006;2022-10-17T02:23:40;100676.19;;;9.26;78.40
64835;BME280;51293;59.296;18.006;2022-10-17T02:26:30;100688.97;;;9.19;78.99
64835;BME280;51293;59.296;18.006;2022-10-17T02:29:12;100685.41;;;9.18;79.00
64835;BME280;51293;59.296;18.006;2022-10-17T02:31:44;100699.59;;;9.14;79.57
64835;BME280;51293;59.296;18.006;2022-10-17T02:34:18;100680.31;;;9.10;79.26
64835;BME280;51293;59.296;18.006;2022-10-17T02:36:49;100694.00;;;9.09;79.58
64835;BME280;51293;59.296;18.006;2022-10-17T02:39:19;100710.09;;;9.04;79.69
64835;BME280;51293;59.296;18.006;2022-10-17T02:41:47;100709.09;;;8.98;80.19
64835;BME280;51293;59.296;18.006;2022-10-17T02:44:13;100704.72;;;8.97;79.70
64835;BME280;51293;59.296;18.006;2022-10-17T02:46:40;100712.88;;;8.90;80.67
64835;BME280;51293;59.296;18.006;2022-10-17T02:49:22;100722.25;;;8.88;80.87
64835;BME280;51293;59.296;18.006;2022-10-17T02:52:06;100723.09;;;8.88;80.62
64835;BME280;51293;59.296;18.006;2022-10-17T02:54:47;100727.66;;;8.88;80.69
64835;BME280;51293;59.296;18.006;2022-10-17T02:57:21;100723.59;;;8.79;80.96
64835;BME280;51293;59.296;18.006;2022-10-17T02:59:49;100734.97;;;8.81;81.03
64835;BME280;51293;59.296;18.006;2022-10-17T03:02:16;100742.03;;;8.82;81.27
64835;BME280;51293;59.296;18.006;2022-10-17T03:04:43;100733.16;;;8.75;81.60
64835;BME280;51293;59.296;18.006;2022-10-17T03:07:09;100739.81;;;8.72;81.65
64835;BME280;51293;59.296;18.006;2022-10-17T03:09:34;100749.34;;;8.75;81.58
64835;BME280;51293;59.296;18.006;2022-10-17T03:12:00;100743.38;;;8.66;82.19
64835;BME280;51293;59.296;18.006;2022-10-17T03:14:25;100743.22;;;8.61;82.52
64835;BME280;51293;59.296;18.006;2022-10-17T03:16:50;100755.50;;;8.57;82.83
64835;BME280;51293;59.296;18.006;2022-10-17T03:19:16;100758.63;;;8.54;82.99
64835;BME280;51293;59.296;18.006;2022-10-17T03:21:41;100756.13;;;8.52;83.12
64835;BME280;51293;59.296;18.006;2022-10-17T03:24:06;100771.09;;;8.55;83.13
64835;BME280;51293;59.296;18.006;2022-10-17T03:26:32;100778.59;;;8.53;83.04
64835;BME280;51293;59.296;18.006;2022-10-17T03:28:57;100780.22;;;8.54;83.03
64835;BME280;51293;59.296;18.006;2022-10-17T03:31:23;100787.53;;;8.47;83.46
64835;BME280;51293;59.296;18.006;2022-10-17T03:33:48;100806.44;;;8.47;83.22
64835;BME280;51293;59.296;18.006;2022-10-17T03:36:16;100801.44;;;8.43;83.40
64835;BME280;51293;59.296;18.006;2022-10-17T03:38:42;100802.72;;;8.41;83.42
64835;BME280;51293;59.296;18.006;2022-10-17T03:41:08;100821.78;;;8.46;83.35
64835;BME280;51293;59.296;18.006;2022-10-17T03:43:34;100825.94;;;8.42;83.55
64835;BME280;51293;59.296;18.006;2022-10-17T03:46:00;100828.25;;;8.38;83.80
64835;BME280;51293;59.296;18.006;2022-10-17T03:48:26;100835.75;;;8.36;83.81
64835;BME280;51293;59.296;18.006;2022-10-17T03:51:00;100833.88;;;8.30;84.32
64835;BME280;51293;59.296;18.006;2022-10-17T03:53:27;100851.72;;;8.31;84.26
64835;BME280;51293;59.296;18.006;2022-10-17T03:55:52;100850.88;;;8.31;84.37
64835;BME280;51293;59.296;18.006;2022-10-17T03:58:17;100855.47;;;8.30;84.32
64835;BME280;51293;59.296;18.006;2022-10-17T04:00:43;100857.94;;;8.32;83.89
64835;BME280;51293;59.296;18.006;2022-10-17T04:03:09;100884.09;;;8.31;83.96
64835;BME280;51293;59.296;18.006;2022-10-17T04:05:34;100876.81;;;8.32;84.17
64835;BME280;51293;59.296;18.006;2022-10-17T04:07:59;100885.97;;;8.31;84.21
64835;BME280;51293;59.296;18.006;2022-10-17T04:10:25;100889.91;;;8.35;83.86
64835;BME280;51293;59.296;18.006;2022-10-17T04:12:50;100891.16;;;8.32;83.90
64835;BME280;51293;59.296;18.006;2022-10-17T04:15:15;100889.91;;;8.35;84.08
64835;BME280;51293;59.296;18.006;2022-10-17T04:17:41;100902.59;;;8.28;84.26
64835;BME280;51293;59.296;18.006;2022-10-17T04:20:07;100903.41;;;8.28;84.33
64835;BME280;51293;59.296;18.006;2022-10-17T04:22:32;100906.13;;;8.28;84.41
64835;BME280;51293;59.296;18.006;2022-10-17T04:24:57;100913.78;;;8.31;84.19
64835;BME280;51293;59.296;18.006;2022-10-17T04:27:23;100927.06;;;8.26;84.33
64835;BME280;51293;59.296;18.006;2022-10-17T04:29:48;100926.03;;;8.27;84.35
64835;BME280;51293;59.296;18.006;2022-10-17T04:32:14;100935.59;;;8.23;84.24
64835;BME280;51293;59.296;18.006;2022-10-17T04:34:39;100932.47;;;8.26;84.08
64835;BME280;51293;59.296;18.006;2022-10-17T04:37:05;100933.72;;;8.24;84.27
64835;BME280;51293;59.296;18.006;2022-10-17T04:39:30;100937.25;;;8.24;84.00
64835;BME280;51293;59.296;18.006;2022-10-17T04:41:55;100929.97;;;8.25;84.01
64835;BME280;51293;59.296;18.006;2022-10-17T04:44:21;100941.22;;;8.28;83.76
64835;BME280;51293;59.296;18.006;2022-10-17T04:46:47;100950.13;;;8.29;83.66
64835;BME280;51293;59.296;18.006;2022-10-17T04:49:12;100945.34;;;8.24;84.25
64835;BME280;51293;59.296;18.006;2022-10-17T04:51:38;100963.41;;;8.24;84.12
64835;BME280;51293;59.296;18.006;2022-10-17T04:54:03;100973.38;;;8.23;84.02
64835;BME280;51293;59.296;18.006;2022-10-17T04:56:29;100977.94;;;8.29;83.34
64835;BME280;51293;59.296;18.006;2022-10-17T04:58:54;100980.22;;;8.32;83.25
64835;BME280;51293;59.296;18.006;2022-10-17T05:01:21;100996.63;;;8.31;83.51
64835;BME280;51293;59.296;18.006;2022-10-17T05:03:47;100997.44;;;8.31;83.24
64835;BME280;51293;59.296;18.006;2022-10-17T05:06:15;101004.72;;;8.24;83.56
64835;BME280;51293;59.296;18.006;2022-10-17T05:08:41;101008.06;;;8.20;83.99
64835;BME280;51293;59.296;18.006;2022-10-17T05:11:27;101004.50;;;8.19;83.94
64835;BME280;51293;59.296;18.006;2022-10-17T05:13:56;101007.84;;;8.14;84.16
64835;BME280;51293;59.296;18.006;2022-10-17T05:16:22;101018.41;;;8.16;83.99
64835;BME280;51293;59.296;18.006;2022-10-17T05:18:51;101030.25;;;8.15;84.63
64835;BME280;51293;59.296;18.006;2022-10-17T05:21:18;101017.56;;;8.09;84.28
64835;BME280;51293;59.296;18.006;2022-10-17T05:23:43;101025.28;;;8.12;84.20
64835;BME280;51293;59.296;18.006;2022-10-17T05:26:09;101029.19;;;8.09;84.20
64835;BME280;51293;59.296;18.006;2022-10-17T05:28:34;101036.69;;;8.07;84.28
64835;BME280;51293;59.296;18.006;2022-10-17T05:31:04;101034.41;;;8.11;84.22
64835;BME280;51293;59.296;18.006;2022-10-17T05:33:31;101047.28;;;8.15;84.03
64835;BME280;51293;59.296;18.006;2022-10-17T05:35:57;101048.31;;;8.08;84.46
64835;BME280;51293;59.296;18.006;2022-10-17T05:38:23;101053.69;;;8.08;84.62
64835;BME280;51293;59.296;18.006;2022-10-17T05:40:48;101054.72;;;8.07;84.66
64835;BME280;51293;59.296;18.006;2022-10-17T05:43:13;101063.88;;;8.06;84.87
64835;BME280;51293;59.296;18.006;2022-10-17T05:45:39;101065.94;;;8.04;85.05
64835;BME280;51293;59.296;18.006;2022-10-17T05:48:05;101074.88;;;8.11;84.95
64835;BME280;51293;59.296;18.006;2022-10-17T05:50:30;101075.91;;;8.03;85.50
64835;BME280;51293;59.296;18.006;2022-10-17T05:52:56;101093.97;;;8.03;85.36
64835;BME280;51293;59.296;18.006;2022-10-17T05:55:22;101087.31;;;7.99;85.92
64835;BME280;51293;59.296;18.006;2022-10-17T05:57:48;101088.97;;;8.00;85.63
64835;BME280;51293;59.296;18.006;2022-10-17T06:00:14;101100.19;;;8.03;85.56
64835;BME280;51293;59.296;18.006;2022-10-17T06:02:39;101113.03;;;7.95;86.31
64835;BME280;51293;59.296;18.006;2022-10-17T06:05:05;101107.03;;;8.06;85.79
64835;BME280;51293;59.296;18.006;2022-10-17T06:07:30;101106.00;;;8.07;85.82
64835;BME280;51293;59.296;18.006;2022-10-17T06:09:56;101130.91;;;8.09;86.04
64835;BME280;51293;59.296;18.006;2022-10-17T06:12:23;101116.56;;;8.08;85.72
64835;BME280;51293;59.296;18.006;2022-10-17T06:14:49;101120.34;;;8.14;85.87
64835;BME280;51293;59.296;18.006;2022-10-17T06:17:15;101114.94;;;8.14;85.80
64835;BME280;51293;59.296;18.006;2022-10-17T06:19:40;101130.69;;;8.17;85.83
64835;BME280;51293;59.296;18.006;2022-10-17T06:22:06;101130.91;;;8.15;86.07
64835;BME280;51293;59.296;18.006;2022-10-17T06:24:31;101139.00;;;8.15;86.24
64835;BME280;51293;59.296;18.006;2022-10-17T06:26:57;101135.28;;;8.16;85.77
64835;BME280;51293;59.296;18.006;2022-10-17T06:29:22;101149.41;;;8.25;85.24
64835;BME280;51293;59.296;18.006;2022-10-17T06:31:47;101160.19;;;8.25;85.54
64835;BME280;51293;59.296;18.006;2022-10-17T06:34:13;101149.00;;;8.28;85.37
64835;BME280;51293;59.296;18.006;2022-10-17T06:36:38;101169.13;;;8.26;85.83
64835;BME280;51293;59.296;18.006;2022-10-17T06:39:04;101181.41;;;8.28;85.71
64835;BME280;51293;59.296;18.006;2022-10-17T06:41:29;101180.97;;;8.31;85.50
64835;BME280;51293;59.296;18.006;2022-10-17T06:43:55;101189.13;;;8.38;85.23
64835;BME280;51293;59.296;18.006;2022-10-17T06:46:20;101186.00;;;8.41;85.12
64835;BME280;51293;59.296;18.006;2022-10-17T06:48:45;101189.31;;;8.43;85.13
64835;BME280;51293;59.296;18.006;2022-10-17T06:51:11;101199.72;;;8.46;85.15
64835;BME280;51293;59.296;18.006;2022-10-17T06:53:38;101211.97;;;8.49;84.87
64835;BME280;51293;59.296;18.006;2022-10-17T06:56:05;101216.34;;;8.50;85.33
64835;BME280;51293;59.296;18.006;2022-10-17T06:58:33;101215.28;;;8.51;84.64
64835;BME280;51293;59.296;18.006;2022-10-17T07:01:00;101226.91;;;8.51;84.67
64835;BME280;51293;59.296;18.006;2022-10-17T07:03:26;101234.63;;;8.54;84.67
64835;BME280;51293;59.296;18.006;2022-10-17T07:05:53;101242.94;;;8.66;84.14
64835;BME280;51293;59.296;18.006;2022-10-17T07:08:19;101246.91;;;8.63;84.25
64835;BME280;51293;59.296;18.006;2022-10-17T07:10:44;101247.97;;;8.69;83.97
64835;BME280;51293;59.296;18.006;2022-10-17T07:13:09;101257.28;;;8.66;83.71
64835;BME280;51293;59.296;18.006;2022-10-17T07:15:36;101258.75;;;8.69;84.00
64835;BME280;51293;59.296;18.006;2022-10-17T07:18:02;101265.41;;;8.73;83.90
64835;BME280;51293;59.296;18.006;2022-10-17T07:20:27;101268.50;;;8.77;83.24
64835;BME280;51293;59.296;18.006;2022-10-17T07:22:52;101261.66;;;8.81;83.70
64835;BME280;51293;59.296;18.006;2022-10-17T07:25:18;101266.88;;;8.89;82.94
64835;BME280;51293;59.296;18.006;2022-10-17T07:27:43;101263.34;;;8.88;83.00
64835;BME280;51293;59.296;18.006;2022-10-17T07:30:09;101267.91;;;9.01;82.43
64835;BME280;51293;59.296;18.006;2022-10-17T07:32:35;101270.84;;;9.19;81.55
64835;BME280;51293;59.296;18.006;2022-10-17T07:35:00;101276.66;;;9.29;80.88
64835;BME280;51293;59.296;18.006;2022-10-17T07:37:25;101282.91;;;9.43;80.40
64835;BME280;51293;59.296;18.006;2022-10-17T07:39:51;101282.03;;;9.63;79.66
64835;BME280;51293;59.296;18.006;2022-10-17T07:42:16;101280.53;;;9.67;78.94
64835;BME280;51293;59.296;18.006;2022-10-17T07:44:42;101278.88;;;9.72;78.99
64835;BME280;51293;59.296;18.006;2022-10-17T07:47:08;101284.22;;;9.92;78.38
64835;BME280;51293;59.296;18.006;2022-10-17T07:49:33;101285.06;;;9.93;78.03
64835;BME280;51293;59.296;18.006;2022-10-17T07:51:58;101299.25;;;9.81;78.75
64835;BME280;51293;59.296;18.006;2022-10-17T07:54:24;101306.91;;;9.91;77.86
64835;BME280;51293;59.296;18.006;2022-10-17T07:56:49;101304.88;;;9.87;78.20
64835;BME280;51293;59.296;18.006;2022-10-17T07:59:18;101325.47;;;9.81;78.27
64835;BME280;51293;59.296;18.006;2022-10-17T08:01:43;101332.31;;;9.83;78.53
64835;BME280;51293;59.296;18.006;2022-10-17T08:04:09;101343.34;;;10.02;77.73
64835;BME280;51293;59.296;18.006;2022-10-17T08:06:34;101336.66;;;10.04;77.18
64835;BME280;51293;59.296;18.006;2022-10-17T08:08:59;101344.34;;;10.07;77.30
64835;BME280;51293;59.296;18.006;2022-10-17T08:11:26;101335.25;;;9.95;77.24
64835;BME280;51293;59.296;18.006;2022-10-17T08:13:51;101354.72;;;10.17;76.63
64835;BME280;51293;59.296;18.006;2022-10-17T08:16:17;101353.09;;;10.23;76.32
64835;BME280;51293;59.296;18.006;2022-10-17T08:18:42;101354.94;;;10.29;75.92
64835;BME280;51293;59.296;18.006;2022-10-17T08:21:08;101351.19;;;10.36;75.14
64835;BME280;51293;59.296;18.006;2022-10-17T08:23:35;101350.72;;;10.46;74.85
64835;BME280;51293;59.296;18.006;2022-10-17T08:26:02;101355.06;;;10.54;74.48
64835;BME280;51293;59.296;18.006;2022-10-17T08:28:29;101374.19;;;10.59;74.50
64835;BME280;51293;59.296;18.006;2022-10-17T08:31:02;101362.13;;;10.55;74.12
64835;BME280;51293;59.296;18.006;2022-10-17T08:33:27;101377.44;;;10.81;73.30
64835;BME280;51293;59.296;18.006;2022-10-17T08:35:52;101379.00;;;11.02;71.93
64835;BME280;51293;59.296;18.006;2022-10-17T08:38:18;101380.19;;;11.12;71.88
64835;BME280;51293;59.296;18.006;2022-10-17T08:40:47;101388.00;;;11.27;70.89
64835;BME280;51293;59.296;18.006;2022-10-17T08:45:56;101377.41;;;11.75;68.85
64835;BME280;51293;59.296;18.006;2022-10-17T08:48:26;101386.44;;;11.69;68.95
64835;BME280;51293;59.296;18.006;2022-10-17T08:50:59;101404.31;;;11.77;68.47
64835;BME280;51293;59.296;18.006;2022-10-17T08:56:16;101412.97;;;12.17;66.99
64835;BME280;51293;59.296;18.006;2022-10-17T08:58:43;101419.88;;;12.13;66.82
64835;BME280;51293;59.296;18.006;2022-10-17T09:07:23;101437.41;;;12.17;66.26
64835;BME280;51293;59.296;18.006;2022-10-17T09:10:02;101434.34;;;12.07;66.85
64835;BME280;51293;59.296;18.006;2022-10-17T09:17:59;101433.78;;;11.73;67.31
64835;BME280;51293;59.296;18.006;2022-10-17T09:20:36;101443.91;;;11.60;68.20
64835;BME280;51293;59.296;18.006;2022-10-17T09:23:12;101443.25;;;11.64;67.87
64835;BME280;51293;59.296;18.006;2022-10-17T09:25:45;101451.97;;;11.98;66.82
64835;BME280;51293;59.296;18.006;2022-10-17T09:28:26;101445.84;;;11.84;66.81
64835;BME280;51293;59.296;18.006;2022-10-17T09:33:42;101441.91;;;11.80;66.89
64835;BME280;51293;59.296;18.006;2022-10-17T09:36:15;101443.56;;;11.74;66.35
64835;BME280;51293;59.296;18.006;2022-10-17T09:38:44;101457.78;;;11.76;66.12
64835;BME280;51293;59.296;18.006;2022-10-17T09:41:25;101472.94;;;11.59;66.87
64835;BME280;51293;59.296;18.006;2022-10-17T09:43:55;101472.09;;;11.59;67.18
64835;BME280;51293;59.296;18.006;2022-10-17T09:46:51;101477.91;;;11.62;67.05
64835;BME280;51293;59.296;18.006;2022-10-17T09:49:41;101468.75;;;11.57;67.54
64835;BME280;51293;59.296;18.006;2022-10-17T09:52:20;101472.03;;;11.65;67.15
64835;BME280;51293;59.296;18.006;2022-10-17T09:54:51;101466.31;;;11.48;66.58
64835;BME280;51293;59.296;18.006;2022-10-17T09:57:18;101474.22;;;11.50;67.20
64835;BME280;51293;59.296;18.006;2022-10-17T10:07:25;101481.72;;;11.54;66.80
64835;BME280;51293;59.296;18.006;2022-10-17T10:09:51;101482.78;;;11.53;67.43
64835;BME280;51293;59.296;18.006;2022-10-17T10:12:26;101485.41;;;11.67;67.28
64835;BME280;51293;59.296;18.006;2022-10-17T10:14:52;101487.91;;;11.68;67.12
64835;BME280;51293;59.296;18.006;2022-10-17T10:17:36;101497.28;;;11.97;66.14
64835;BME280;51293;59.296;18.006;2022-10-17T10:23:16;101505.34;;;12.35;64.34
64835;BME280;51293;59.296;18.006;2022-10-17T10:25:58;101497.31;;;12.41;64.56
64835;BME280;51293;59.296;18.006;2022-10-17T10:28:30;101494.53;;;12.47;64.12
64835;BME280;51293;59.296;18.006;2022-10-17T10:30:59;101501.09;;;12.40;63.24
64835;BME280;51293;59.296;18.006;2022-10-17T10:33:27;101503.84;;;12.15;63.56
64835;BME280;51293;59.296;18.006;2022-10-17T10:35:59;101501.03;;;12.03;64.07
64835;BME280;51293;59.296;18.006;2022-10-17T10:38:27;101507.56;;;11.95;63.25
64835;BME280;51293;59.296;18.006;2022-10-17T10:41:11;101507.03;;;11.80;64.22
64835;BME280;51293;59.296;18.006;2022-10-17T10:43:42;101512.41;;;11.87;64.74
64835;BME280;51293;59.296;18.006;2022-10-17T10:46:18;101514.09;;;11.88;63.57
64835;BME280;51293;59.296;18.006;2022-10-17T10:51:18;101516.53;;;11.96;63.83
64835;BME280;51293;59.296;18.006;2022-10-17T10:56:23;101521.72;;;11.97;63.52
64835;BME280;51293;59.296;18.006;2022-10-17T11:04:27;101518.88;;;12.17;62.27
64835;BME280;51293;59.296;18.006;2022-10-17T11:09:57;101518.19;;;12.22;61.09
64835;BME280;51293;59.296;18.006;2022-10-17T11:12:42;101523.28;;;12.36;60.48
64835;BME280;51293;59.296;18.006;2022-10-17T11:15:36;101522.41;;;12.43;60.08
64835;BME280;51293;59.296;18.006;2022-10-17T11:18:07;101513.25;;;12.37;59.77
64835;BME280;51293;59.296;18.006;2022-10-17T11:20:51;101517.69;;;12.31;60.55
64835;BME280;51293;59.296;18.006;2022-10-17T11:26:01;101514.44;;;12.41;60.26
64835;BME280;51293;59.296;18.006;2022-10-17T11:28:28;101511.16;;;12.57;60.44
64835;BME280;51293;59.296;18.006;2022-10-17T11:30:57;101511.03;;;12.71;58.18
64835;BME280;51293;59.296;18.006;2022-10-17T11:33:33;101514.44;;;12.84;57.77
64835;BME280;51293;59.296;18.006;2022-10-17T11:36:05;101518.53;;;12.93;57.03
64835;BME280;51293;59.296;18.006;2022-10-17T11:38:36;101507.47;;;13.07;57.56
64835;BME280;51293;59.296;18.006;2022-10-17T11:41:03;101504.63;;;13.20;57.06
64835;BME280;51293;59.296;18.006;2022-10-17T11:51:20;101517.44;;;13.13;56.97
64835;BME280;51293;59.296;18.006;2022-10-17T11:54:01;101510.59;;;12.92;58.04
64835;BME280;51293;59.296;18.006;2022-10-17T11:56:50;101512.25;;;12.93;57.97
64835;BME280;51293;59.296;18.006;2022-10-17T12:02:13;101509.00;;;12.66;59.72
64835;BME280;51293;59.296;18.006;2022-10-17T12:12:45;101508.09;;;12.72;59.36
64835;BME280;51293;59.296;18.006;2022-10-17T12:17:42;101506.59;;;12.76;61.10
64835;BME280;51293;59.296;18.006;2022-10-17T12:22:51;101498.56;;;12.81;61.45
64835;BME280;51293;59.296;18.006;2022-10-17T12:25:23;101507.34;;;12.83;61.37
64835;BME280;51293;59.296;18.006;2022-10-17T12:28:03;101500.06;;;12.96;61.89
64835;BME280;51293;59.296;18.006;2022-10-17T12:30:30;101500.31;;;12.76;62.59
64835;BME280;51293;59.296;18.006;2022-10-17T12:35:47;101501.16;;;12.58;63.23
64835;BME280;51293;59.296;18.006;2022-10-17T12:48:12;101480.94;;;12.29;64.70
64835;BME280;51293;59.296;18.006;2022-10-17T12:54:14;101490.44;;;12.20;64.96
64835;BME280;51293;59.296;18.006;2022-10-17T12:56:21;101493.53;;;11.98;66.05
64835;BME280;51293;59.296;18.006;2022-10-17T12:58:54;101500.84;;;11.98;66.85
64835;BME280;51293;59.296;18.006;2022-10-17T13:01:31;101494.75;;;12.02;66.60
64835;BME280;51293;59.296;18.006;2022-10-17T13:03:58;101495.63;;;11.96;67.21
64835;BME280;51293;59.296;18.006;2022-10-17T13:06:32;101491.16;;;11.84;67.71
64835;BME280;51293;59.296;18.006;2022-10-17T13:09:07;101497.84;;;11.74;68.63
64835;BME280;51293;59.296;18.006;2022-10-17T13:11:35;101497.84;;;11.81;68.55
64835;BME280;51293;59.296;18.006;2022-10-17T13:14:08;101502.06;;;11.70;68.79
64835;BME280;51293;59.296;18.006;2022-10-17T13:16:37;101506.09;;;11.61;69.24
64835;BME280;51293;59.296;18.006;2022-10-17T13:19:15;101510.91;;;11.59;69.25
64835;BME280;51293;59.296;18.006;2022-10-17T13:24:32;101519.56;;;11.43;68.98
64835;BME280;51293;59.296;18.006;2022-10-17T13:26:58;101512.28;;;11.37;69.38
64835;BME280;51293;59.296;18.006;2022-10-17T13:29:24;101505.22;;;11.29;70.27
64835;BME280;51293;59.296;18.006;2022-10-17T13:31:53;101503.78;;;11.27;70.84
64835;BME280;51293;59.296;18.006;2022-10-17T13:34:23;101514.84;;;11.25;71.02
64835;BME280;51293;59.296;18.006;2022-10-17T13:36:54;101513.03;;;11.12;71.54
64835;BME280;51293;59.296;18.006;2022-10-17T13:39:26;101503.47;;;11.10;72.07
64835;BME280;51293;59.296;18.006;2022-10-17T13:41:54;101502.63;;;11.09;72.42
64835;BME280;51293;59.296;18.006;2022-10-17T13:44:22;101501.38;;;11.05;72.33
64835;BME280;51293;59.296;18.006;2022-10-17T13:46:49;101505.94;;;11.11;71.92
64835;BME280;51293;59.296;18.006;2022-10-17T13:49:35;101499.91;;;11.09;71.70
64835;BME280;51293;59.296;18.006;2022-10-17T13:52:05;101487.38;;;11.08;71.94
64835;BME280;51293;59.296;18.006;2022-10-17T13:54:39;101496.00;;;10.92;72.64
64835;BME280;51293;59.296;18.006;2022-10-17T13:57:16;101498.53;;;10.93;72.71
64835;BME280;51293;59.296;18.006;2022-10-17T13:59:42;101481.63;;;10.91;72.96
64835;BME280;51293;59.296;18.006;2022-10-17T14:02:32;101476.41;;;10.90;73.05
64835;BME280;51293;59.296;18.006;2022-10-17T14:07:57;101511.41;;;10.98;72.64
64835;BME280;51293;59.296;18.006;2022-10-17T14:10:31;101520.44;;;10.85;73.34
64835;BME280;51293;59.296;18.006;2022-10-17T14:12:57;101530.47;;;10.78;73.82
64835;BME280;51293;59.296;18.006;2022-10-17T14:15:28;101525.88;;;10.79;73.70
64835;BME280;51293;59.296;18.006;2022-10-17T14:18:07;101528.75;;;10.84;73.81
64835;BME280;51293;59.296;18.006;2022-10-17T14:20:34;101538.81;;;10.77;73.94
64835;BME280;51293;59.296;18.006;2022-10-17T14:23:00;101517.13;;;10.70;74.61
64835;BME280;51293;59.296;18.006;2022-10-17T14:25:34;101505.69;;;10.68;74.64
64835;BME280;51293;59.296;18.006;2022-10-17T14:30:38;101499.66;;;10.59;75.11
64835;BME280;51293;59.296;18.006;2022-10-17T14:33:07;101498.78;;;10.65;74.84
64835;BME280;51293;59.296;18.006;2022-10-17T14:35:36;101519.47;;;10.60;75.21
64835;BME280;51293;59.296;18.006;2022-10-17T14:38:03;101518.41;;;10.61;74.74
64835;BME280;51293;59.296;18.006;2022-10-17T14:40:31;101505.09;;;10.53;75.40
64835;BME280;51293;59.296;18.006;2022-10-17T14:43:02;101513.22;;;10.46;75.78
64835;BME280;51293;59.296;18.006;2022-10-17T14:45:32;101508.41;;;10.48;75.66